createdAt,value
2022-12-11T00:03:15.801Z,86.66
2022-12-11T00:09:21.425Z,87.27
2022-12-11T00:15:23.363Z,87.19
2022-12-11T00:21:26.443Z,87.07
2022-12-11T00:27:28.604Z,87.36
2022-12-11T00:33:30.606Z,87.39
2022-12-11T00:39:44.635Z,87.28
2022-12-11T00:45:48.002Z,86.87
2022-12-11T00:51:49.965Z,85.77
2022-12-11T00:57:52.434Z,83.67
2022-12-11T01:03:54.382Z,79.89
2022-12-11T01:10:14.521Z,80.83
2022-12-11T01:16:16.570Z,81.44
2022-12-11T01:22:18.503Z,81.93
2022-12-11T01:28:20.406Z,81.49
2022-12-11T01:34:22.356Z,82.04
2022-12-11T01:40:24.394Z,82.50
2022-12-11T01:46:38.702Z,82.97
2022-12-11T01:52:43.215Z,82.94
2022-12-11T01:58:54.770Z,83.15
2022-12-11T02:04:57.157Z,83.56
2022-12-11T02:11:26.443Z,82.64
2022-12-11T02:18:14.706Z,82.38
2022-12-11T02:25:05.078Z,82.66
2022-12-11T02:31:29.826Z,83.26
2022-12-11T02:37:35.744Z,83.32
2022-12-11T02:43:39.308Z,83.16
2022-12-11T02:49:45.558Z,83.00
2022-12-11T02:55:52.985Z,82.95
2022-12-11T03:01:55.102Z,82.42
2022-12-11T03:07:57.329Z,82.41
2022-12-11T03:14:04.027Z,82.77
2022-12-11T03:20:38.424Z,82.54
2022-12-11T03:26:46.465Z,81.78
2022-12-11T03:33:15.388Z,82.38
2022-12-11T03:39:32.056Z,81.50
2022-12-11T03:45:34.977Z,81.44
2022-12-11T03:51:38.939Z,81.92
2022-12-11T03:57:40.916Z,81.55
2022-12-11T04:03:42.905Z,81.36
2022-12-11T04:09:50.801Z,80.93
2022-12-11T04:15:52.744Z,81.25
2022-12-11T04:22:32.876Z,81.31
2022-12-11T04:28:35.951Z,80.79
2022-12-11T04:34:37.858Z,81.28
2022-12-11T04:40:40.204Z,81.58
2022-12-11T04:46:42.122Z,80.97
2022-12-11T04:52:50.869Z,80.90
2022-12-11T04:58:52.733Z,80.71
2022-12-11T05:04:54.614Z,80.55
2022-12-11T05:10:57.499Z,80.59
2022-12-11T05:17:00.425Z,79.69
2022-12-11T05:23:02.367Z,79.91
2022-12-11T05:29:04.312Z,79.44
2022-12-11T05:35:06.648Z,79.72
2022-12-11T05:41:08.938Z,80.84
2022-12-11T05:47:13.915Z,80.75
2022-12-11T05:53:15.769Z,80.76
2022-12-11T05:59:24.530Z,80.93
2022-12-11T06:05:26.395Z,81.84
2022-12-11T06:11:37.126Z,81.34
2022-12-11T06:17:39.052Z,81.91
2022-12-11T06:23:44.825Z,82.27
2022-12-11T06:29:49.724Z,82.68
2022-12-11T06:36:07.140Z,82.91
2022-12-11T06:42:09.054Z,83.65
2022-12-11T06:48:14.617Z,83.35
2022-12-11T06:54:19.678Z,83.07
2022-12-11T07:00:21.823Z,83.11
2022-12-11T07:06:24.827Z,83.52
2022-12-11T07:18:50.171Z,84.26
2022-12-11T07:24:54.881Z,84.09
2022-12-11T07:30:56.738Z,83.09
2022-12-11T07:37:03.497Z,81.78
2022-12-11T07:43:05.376Z,82.46
2022-12-11T07:49:13.594Z,82.21
2022-12-11T07:55:15.633Z,82.22
2022-12-11T08:01:23.898Z,80.62
2022-12-11T08:07:25.800Z,80.95
2022-12-11T08:13:32.776Z,81.56
2022-12-11T08:19:34.677Z,81.48
2022-12-11T08:25:40.204Z,81.17
2022-12-11T08:31:42.528Z,81.19
2022-12-11T08:37:44.468Z,80.53
2022-12-11T08:43:46.764Z,80.88
2022-12-11T08:49:48.851Z,80.64
2022-12-11T08:55:50.746Z,81.31
2022-12-11T09:08:13.696Z,80.52
2022-12-11T09:14:24.647Z,81.00
2022-12-11T09:20:26.835Z,80.75
2022-12-11T09:26:34.901Z,80.41
2022-12-11T09:32:37.351Z,79.70
2022-12-11T09:38:39.570Z,79.80
2022-12-11T09:44:42.349Z,79.28
2022-12-11T09:50:51.550Z,78.72
2022-12-11T09:57:07.653Z,79.36
2022-12-11T10:03:45.660Z,79.23
2022-12-11T10:10:18.491Z,79.06
2022-12-11T10:16:50.858Z,79.48
2022-12-11T10:22:54.876Z,78.73
2022-12-11T10:29:01.019Z,78.88
2022-12-11T10:35:16.693Z,78.32
2022-12-11T10:41:24.903Z,78.78
2022-12-11T10:47:27.644Z,77.78
2022-12-11T10:53:32.109Z,78.23
2022-12-11T10:59:37.924Z,78.74
2022-12-11T11:05:41.004Z,78.01
2022-12-11T11:11:57.141Z,77.63
2022-12-11T11:18:12.755Z,76.60
2022-12-11T11:24:41.195Z,75.05
2022-12-11T11:31:12.224Z,74.50
2022-12-11T11:37:36.151Z,74.98
2022-12-11T11:44:02.897Z,75.49
2022-12-11T11:50:34.191Z,74.58
2022-12-11T11:56:37.939Z,75.00
2022-12-11T12:02:41.502Z,73.75
2022-12-11T12:08:58.307Z,73.06
2022-12-11T12:15:21.938Z,73.84
2022-12-11T12:21:35.515Z,73.30
2022-12-11T12:28:12.269Z,73.88
2022-12-11T12:34:51.911Z,72.99
2022-12-11T12:41:35.811Z,73.86
2022-12-11T12:47:38.988Z,74.74
2022-12-11T12:53:46.790Z,74.14
2022-12-11T12:59:55.591Z,74.30
2022-12-11T13:06:10.233Z,74.77
2022-12-11T13:12:29.966Z,73.33
2022-12-11T13:18:39.299Z,74.38
2022-12-11T13:25:16.872Z,73.59
2022-12-11T13:31:18.774Z,73.90
2022-12-11T13:37:43.451Z,73.93
2022-12-11T13:43:49.562Z,73.92
2022-12-11T13:50:22.965Z,74.21
2022-12-11T13:56:24.876Z,74.60
2022-12-11T14:02:45.358Z,75.08
2022-12-11T14:08:55.465Z,75.08
2022-12-11T14:15:14.000Z,76.00
2022-12-11T14:21:23.512Z,75.04
2022-12-11T14:27:34.572Z,75.56
2022-12-11T14:33:43.451Z,76.27
2022-12-11T14:40:22.989Z,76.12
2022-12-11T14:46:54.425Z,75.81
2022-12-11T14:53:02.632Z,74.73
2022-12-11T14:59:18.885Z,75.96
2022-12-11T15:05:21.736Z,76.37
2022-12-11T15:11:30.152Z,76.93
2022-12-11T15:17:34.534Z,77.86
2022-12-11T15:23:55.918Z,78.87
2022-12-11T15:29:58.059Z,78.98
2022-12-11T15:36:40.256Z,79.99
2022-12-11T15:42:42.638Z,80.51
2022-12-11T15:48:57.664Z,80.72
2022-12-11T15:54:59.535Z,81.20
2022-12-11T16:01:26.877Z,81.39
2022-12-11T16:07:29.008Z,81.59
2022-12-11T16:13:31.025Z,82.37
2022-12-11T16:19:38.255Z,81.95
2022-12-11T16:25:42.165Z,82.45
2022-12-11T16:31:50.295Z,82.47
2022-12-11T16:37:53.701Z,81.91
2022-12-11T16:44:06.626Z,82.16
2022-12-11T16:50:09.478Z,81.81
2022-12-11T16:56:20.793Z,82.24
2022-12-11T17:02:22.818Z,82.03
2022-12-11T17:08:25.698Z,82.56
2022-12-11T17:14:28.295Z,83.66
2022-12-11T17:20:30.182Z,83.38
2022-12-11T17:26:41.901Z,83.39
2022-12-11T17:32:48.619Z,84.06
2022-12-11T17:38:59.924Z,84.46
2022-12-11T17:45:02.152Z,84.08
2022-12-11T17:51:07.153Z,84.09
2022-12-11T17:57:09.063Z,85.46
2022-12-11T18:03:11.724Z,86.44
2022-12-11T18:09:25.868Z,86.07
2022-12-11T18:15:27.907Z,85.69
2022-12-11T18:21:34.396Z,86.28
2022-12-11T18:27:36.298Z,86.28
2022-12-11T18:33:40.680Z,86.14
2022-12-11T18:39:42.582Z,86.34
2022-12-11T18:45:45.549Z,86.60
2022-12-11T18:51:49.382Z,86.07
2022-12-11T18:57:51.289Z,86.43
2022-12-11T19:04:02.427Z,86.45
2022-12-11T19:10:07.079Z,86.23
2022-12-11T19:16:25.850Z,86.27
2022-12-11T19:22:40.140Z,85.77
2022-12-11T19:28:42.739Z,85.52
2022-12-11T19:34:44.632Z,84.11
2022-12-11T19:40:46.510Z,84.34
2022-12-11T19:46:48.458Z,83.34
2022-12-11T19:52:50.408Z,84.10
2022-12-11T19:58:54.629Z,84.04
2022-12-11T20:04:56.521Z,84.06
2022-12-11T20:11:12.819Z,84.30
2022-12-11T20:17:17.869Z,84.25
2022-12-11T20:23:19.837Z,84.07
2022-12-11T20:29:21.743Z,83.76
2022-12-11T20:35:29.807Z,84.44
2022-12-11T20:41:31.693Z,84.41
2022-12-11T20:47:33.596Z,84.67
2022-12-11T20:53:36.963Z,84.72
2022-12-11T20:59:39.005Z,84.78
2022-12-11T21:05:53.751Z,84.97
2022-12-11T21:11:58.239Z,85.03
2022-12-11T21:18:00.113Z,85.26
2022-12-11T21:24:07.108Z,86.38
2022-12-11T21:30:15.368Z,86.40
2022-12-11T21:36:17.981Z,86.51
2022-12-11T21:42:19.862Z,86.95
2022-12-11T21:48:21.745Z,86.72
2022-12-11T21:54:23.848Z,87.25
2022-12-11T22:00:25.817Z,87.50
2022-12-11T22:06:27.736Z,88.57
2022-12-11T22:12:29.703Z,88.67
2022-12-11T22:18:31.741Z,89.22
2022-12-11T22:24:33.623Z,89.83
2022-12-11T22:30:36.698Z,89.54
2022-12-11T22:36:38.648Z,90.10
2022-12-11T22:42:40.637Z,90.35
2022-12-11T22:48:42.721Z,90.67
2022-12-11T22:54:44.880Z,90.97
2022-12-11T23:00:47.012Z,90.99
2022-12-11T23:06:48.993Z,91.44
2022-12-11T23:12:51.202Z,91.32
2022-12-11T23:18:54.258Z,90.85
2022-12-11T23:24:59.380Z,91.26
2022-12-11T23:31:01.885Z,90.77
2022-12-11T23:37:04.149Z,90.89
2022-12-11T23:43:06.014Z,90.42
2022-12-11T23:49:17.326Z,90.38
2022-12-11T23:55:19.456Z,91.35
